Ana Sayfa
METAR-TAF:

METAR-TAF

Havaalanları :

Cumberland, Maryland, Amerika Birleşik Devletleri

Enlem: 39-36-56N, Boylam: 078-45-39W, yükseklik: 236 m

Güncel hava durumu gözlemi

Rapor saat 20:45 UTC de 31 dakika önce yapıldı.
Rüzgar güney/güneybatıdan 6 kt
Sıcaklık 14°C
Nem 15%
Basınç 1019 hPa
Görüş mesafesi: 16.1 km
12000 ft yükseklikte parçalı bulutlu

METAR: KCBE 232045Z AUTO 21006KT 10SM SCT120 14/M12 A3009 RMK AO2 T01431121

Saat: 16:16 (21:16 UTC)


TAF: eksik

4.000'den fazla havaalanı için hava durumu gözlemleri ve tahminleri (METAR ve TAF raporları).

Kullanılabilir istasyonlar harita üzerinde sarı ve kırmızı noktalarla gösterilir.

İstasyonun adını görmek için fareyi noktanın üzerinde gezdirin.

Sonrasında hava gözlem ve tahminlerini görmek için tıklayın.

Haritayı değiştirmek için: yaklaştırmak için siyah artı işaretli yeşil düğmeye ve uzaklaştırmak için de eksi işaretli düğmeye hızla tıklayın; bitişik haritalar için yeşil okları kullanın.


METAR-TAF: